Castleton, Illinois
Current Conditions -  °F | °C
As of 6:15 PM on Friday 28 Nov 2014 (Local Time) from KC75 Reporting Station
Clear Clear  
Wind Chill: 30°   Ceiling: Unl
Heat Index: 35°   Visibility: 10mi
Dew Point: 30°   Wind: 6mph
Humidity: 82%   Direction: 170°S
Pressure: 29.93"   Gusts: NA
Location:  41.12°N, 89.71°W
Report Text: KC75 290015Z AUTO 17005KT 10SM CLR 02/M01 A2993 RMK AO2 T00151012
Loading
Personal Weather Stations






























Interactive Weather Map New forecast layout! Learn more

10-Day Weather Forecast

Advertisements
Track Severe Weather on mobile